Xiushui, China
Current Conditions -  °F | °C
As of 10:00 PM on Saturday 25 Oct 2014 (Local Time) from ZGHA Reporting Station
Clear Clear  
Wind Chill: 66°   Ceiling: Unl
Heat Index: 66°   Visibility: 4mi
Dew Point: 57°   Wind: 9mph
Humidity: 73%   Direction: 90°E
Pressure: 30"   Gusts: NA
Location:  29.03°N, 114.58°E
Report Text: ZGHA 251400Z 09004MPS 6000 NSC 19/14 Q1016 NOSIG
Loading
Personal Weather Stations






























Interactive Weather Map
Tropical Storm Tracking
New forecast layout! Learn more

10-Day Weather Forecast

Advertisements
Track Severe Weather on mobile